sensor_id;sensor_type;location;lat;lon;timestamp;temperature;humidity
41058;DHT22;66768;48.884;2.258;2023-07-30T00:00:10;20.10;99.90
41058;DHT22;66768;48.884;2.258;2023-07-30T00:02:37;20.00;99.90
41058;DHT22;66768;48.884;2.258;2023-07-30T00:05:04;19.90;99.90
41058;DHT22;66768;48.884;2.258;2023-07-30T00:07:33;19.90;99.90
41058;DHT22;66768;48.884;2.258;2023-07-30T00:10:00;19.90;99.90
41058;DHT22;66768;48.884;2.258;2023-07-30T00:12:26;19.90;99.90
41058;DHT22;66768;48.884;2.258;2023-07-30T00:14:53;19.80;99.90
41058;DHT22;66768;48.884;2.258;2023-07-30T00:17:20;19.90;99.90
41058;DHT22;66768;48.884;2.258;2023-07-30T00:19:47;19.90;99.90
41058;DHT22;66768;48.884;2.258;2023-07-30T00:22:14;19.80;99.90
41058;DHT22;66768;48.884;2.258;2023-07-30T00:24:42;19.80;99.90
41058;DHT22;66768;48.884;2.258;2023-07-30T00:27:09;19.80;99.90
41058;DHT22;66768;48.884;2.258;2023-07-30T00:29:36;19.80;99.90
41058;DHT22;66768;48.884;2.258;2023-07-30T00:32:03;19.80;99.90
41058;DHT22;66768;48.884;2.258;2023-07-30T00:34:30;19.70;99.90
41058;DHT22;66768;48.884;2.258;2023-07-30T00:36:57;19.70;99.90
41058;DHT22;66768;48.884;2.258;2023-07-30T00:39:24;19.60;99.90
41058;DHT22;66768;48.884;2.258;2023-07-30T00:41:52;19.60;99.90
41058;DHT22;66768;48.884;2.258;2023-07-30T00:44:19;19.60;99.90
41058;DHT22;66768;48.884;2.258;2023-07-30T00:46:46;19.50;99.90
41058;DHT22;66768;48.884;2.258;2023-07-30T00:49:13;19.40;99.90
41058;DHT22;66768;48.884;2.258;2023-07-30T00:51:41;19.40;99.90
41058;DHT22;66768;48.884;2.258;2023-07-30T00:54:08;19.40;99.90
41058;DHT22;66768;48.884;2.258;2023-07-30T00:56:35;19.40;99.90
41058;DHT22;66768;48.884;2.258;2023-07-30T00:59:04;19.50;99.90
41058;DHT22;66768;48.884;2.258;2023-07-30T01:01:33;19.40;99.90
41058;DHT22;66768;48.884;2.258;2023-07-30T01:04:00;19.30;99.90
41058;DHT22;66768;48.884;2.258;2023-07-30T01:06:27;19.40;99.90
41058;DHT22;66768;48.884;2.258;2023-07-30T01:08:55;19.40;99.90
41058;DHT22;66768;48.884;2.258;2023-07-30T01:11:22;19.40;99.90
41058;DHT22;66768;48.884;2.258;2023-07-30T01:13:49;19.30;99.90
41058;DHT22;66768;48.884;2.258;2023-07-30T01:16:17;19.20;99.90
41058;DHT22;66768;48.884;2.258;2023-07-30T01:18:44;19.20;99.90
41058;DHT22;66768;48.884;2.258;2023-07-30T01:21:13;19.30;99.90
41058;DHT22;66768;48.884;2.258;2023-07-30T01:23:40;19.30;99.90
41058;DHT22;66768;48.884;2.258;2023-07-30T01:26:10;19.30;99.90
41058;DHT22;66768;48.884;2.258;2023-07-30T01:28:43;19.30;99.90
41058;DHT22;66768;48.884;2.258;2023-07-30T01:31:14;19.30;99.90
41058;DHT22;66768;48.884;2.258;2023-07-30T01:33:42;19.30;99.90
41058;DHT22;66768;48.884;2.258;2023-07-30T01:36:15;19.20;99.90
41058;DHT22;66768;48.884;2.258;2023-07-30T01:38:43;19.30;99.90
41058;DHT22;66768;48.884;2.258;2023-07-30T01:41:10;19.20;99.90
41058;DHT22;66768;48.884;2.258;2023-07-30T01:43:37;19.20;99.90
41058;DHT22;66768;48.884;2.258;2023-07-30T01:46:04;19.20;99.90
41058;DHT22;66768;48.884;2.258;2023-07-30T01:48:31;19.10;99.90
41058;DHT22;66768;48.884;2.258;2023-07-30T01:50:58;19.10;99.90
41058;DHT22;66768;48.884;2.258;2023-07-30T01:53:26;19.10;99.90
41058;DHT22;66768;48.884;2.258;2023-07-30T01:55:53;19.10;99.90
41058;DHT22;66768;48.884;2.258;2023-07-30T01:58:20;19.10;99.90
41058;DHT22;66768;48.884;2.258;2023-07-30T02:00:46;19.20;99.90
41058;DHT22;66768;48.884;2.258;2023-07-30T02:03:13;19.10;99.90
41058;DHT22;66768;48.884;2.258;2023-07-30T02:05:41;19.10;99.90
41058;DHT22;66768;48.884;2.258;2023-07-30T02:08:08;19.00;99.90
41058;DHT22;66768;48.884;2.258;2023-07-30T02:10:36;19.10;99.90
41058;DHT22;66768;48.884;2.258;2023-07-30T02:13:03;18.90;99.90
41058;DHT22;66768;48.884;2.258;2023-07-30T02:15:30;18.90;99.90
41058;DHT22;66768;48.884;2.258;2023-07-30T02:17:56;19.00;99.90
41058;DHT22;66768;48.884;2.258;2023-07-30T02:20:23;18.90;99.90
41058;DHT22;66768;48.884;2.258;2023-07-30T02:22:50;18.90;99.90
41058;DHT22;66768;48.884;2.258;2023-07-30T02:25:17;18.90;99.90
41058;DHT22;66768;48.884;2.258;2023-07-30T02:27:46;18.90;99.90
41058;DHT22;66768;48.884;2.258;2023-07-30T02:30:13;18.90;99.90
41058;DHT22;66768;48.884;2.258;2023-07-30T02:32:41;18.90;99.90
41058;DHT22;66768;48.884;2.258;2023-07-30T02:35:08;18.90;99.90
41058;DHT22;66768;48.884;2.258;2023-07-30T02:37:35;18.90;99.90
41058;DHT22;66768;48.884;2.258;2023-07-30T02:40:02;18.80;99.90
41058;DHT22;66768;48.884;2.258;2023-07-30T02:42:30;18.80;99.90
41058;DHT22;66768;48.884;2.258;2023-07-30T02:44:58;18.80;99.90
41058;DHT22;66768;48.884;2.258;2023-07-30T02:47:25;18.70;99.90
41058;DHT22;66768;48.884;2.258;2023-07-30T02:49:52;18.70;99.90
41058;DHT22;66768;48.884;2.258;2023-07-30T02:52:19;18.70;99.90
41058;DHT22;66768;48.884;2.258;2023-07-30T02:54:46;18.70;99.90
41058;DHT22;66768;48.884;2.258;2023-07-30T02:57:13;18.60;99.90
41058;DHT22;66768;48.884;2.258;2023-07-30T02:59:40;18.60;99.90
41058;DHT22;66768;48.884;2.258;2023-07-30T03:02:08;18.70;99.90
41058;DHT22;66768;48.884;2.258;2023-07-30T03:04:35;18.70;99.90
41058;DHT22;66768;48.884;2.258;2023-07-30T03:07:02;18.70;99.90
41058;DHT22;66768;48.884;2.258;2023-07-30T03:09:29;18.60;99.90
41058;DHT22;66768;48.884;2.258;2023-07-30T03:11:56;18.60;99.90
41058;DHT22;66768;48.884;2.258;2023-07-30T03:14:23;18.60;99.90
41058;DHT22;66768;48.884;2.258;2023-07-30T03:16:50;18.60;99.90
41058;DHT22;66768;48.884;2.258;2023-07-30T03:19:18;18.60;99.90
41058;DHT22;66768;48.884;2.258;2023-07-30T03:21:45;18.60;99.90
41058;DHT22;66768;48.884;2.258;2023-07-30T03:24:11;18.70;99.90
41058;DHT22;66768;48.884;2.258;2023-07-30T03:26:38;18.60;99.90
41058;DHT22;66768;48.884;2.258;2023-07-30T03:29:05;18.60;99.90
41058;DHT22;66768;48.884;2.258;2023-07-30T03:31:32;18.60;99.90
41058;DHT22;66768;48.884;2.258;2023-07-30T03:33:59;18.60;99.90
41058;DHT22;66768;48.884;2.258;2023-07-30T03:36:27;18.50;99.90
41058;DHT22;66768;48.884;2.258;2023-07-30T03:38:54;18.60;99.90
41058;DHT22;66768;48.884;2.258;2023-07-30T03:41:21;18.60;99.90
41058;DHT22;66768;48.884;2.258;2023-07-30T03:43:48;18.60;99.90
41058;DHT22;66768;48.884;2.258;2023-07-30T03:46:15;18.50;99.90
41058;DHT22;66768;48.884;2.258;2023-07-30T03:48:42;18.50;99.90
41058;DHT22;66768;48.884;2.258;2023-07-30T03:51:09;18.60;99.90
41058;DHT22;66768;48.884;2.258;2023-07-30T03:53:37;18.60;99.90
41058;DHT22;66768;48.884;2.258;2023-07-30T03:56:04;18.60;99.90
41058;DHT22;66768;48.884;2.258;2023-07-30T03:58:31;18.60;99.90
41058;DHT22;66768;48.884;2.258;2023-07-30T04:00:58;18.40;99.90
41058;DHT22;66768;48.884;2.258;2023-07-30T04:03:25;18.50;99.90
41058;DHT22;66768;48.884;2.258;2023-07-30T04:05:51;18.50;99.90
41058;DHT22;66768;48.884;2.258;2023-07-30T04:08:18;18.50;99.90
41058;DHT22;66768;48.884;2.258;2023-07-30T04:10:47;18.50;99.90
41058;DHT22;66768;48.884;2.258;2023-07-30T04:13:14;18.50;99.90
41058;DHT22;66768;48.884;2.258;2023-07-30T04:15:41;18.50;99.90
41058;DHT22;66768;48.884;2.258;2023-07-30T04:18:08;18.50;99.90
41058;DHT22;66768;48.884;2.258;2023-07-30T04:20:35;18.50;99.90
41058;DHT22;66768;48.884;2.258;2023-07-30T04:23:01;18.50;99.90
41058;DHT22;66768;48.884;2.258;2023-07-30T04:25:28;18.50;99.90
41058;DHT22;66768;48.884;2.258;2023-07-30T04:27:56;18.50;99.90
41058;DHT22;66768;48.884;2.258;2023-07-30T04:30:23;18.50;99.90
41058;DHT22;66768;48.884;2.258;2023-07-30T04:32:50;18.50;99.90
41058;DHT22;66768;48.884;2.258;2023-07-30T04:35:17;18.50;99.90
41058;DHT22;66768;48.884;2.258;2023-07-30T04:37:44;18.50;99.90
41058;DHT22;66768;48.884;2.258;2023-07-30T04:40:11;18.50;99.90
41058;DHT22;66768;48.884;2.258;2023-07-30T04:42:38;18.50;99.90
41058;DHT22;66768;48.884;2.258;2023-07-30T04:45:07;18.50;99.90
41058;DHT22;66768;48.884;2.258;2023-07-30T04:47:34;18.50;99.90
41058;DHT22;66768;48.884;2.258;2023-07-30T04:50:01;18.50;99.90
41058;DHT22;66768;48.884;2.258;2023-07-30T04:52:28;18.50;99.90
41058;DHT22;66768;48.884;2.258;2023-07-30T04:54:55;18.50;99.90
41058;DHT22;66768;48.884;2.258;2023-07-30T04:57:22;18.50;99.90
41058;DHT22;66768;48.884;2.258;2023-07-30T04:59:49;18.50;99.90
41058;DHT22;66768;48.884;2.258;2023-07-30T05:02:18;18.40;99.90
41058;DHT22;66768;48.884;2.258;2023-07-30T05:04:44;18.50;99.90
41058;DHT22;66768;48.884;2.258;2023-07-30T05:07:11;18.50;99.90
41058;DHT22;66768;48.884;2.258;2023-07-30T05:09:38;18.30;99.90
41058;DHT22;66768;48.884;2.258;2023-07-30T05:12:05;18.30;99.90
41058;DHT22;66768;48.884;2.258;2023-07-30T05:14:33;18.40;99.90
41058;DHT22;66768;48.884;2.258;2023-07-30T05:17:13;18.40;99.90
41058;DHT22;66768;48.884;2.258;2023-07-30T05:19:56;18.50;99.90
41058;DHT22;66768;48.884;2.258;2023-07-30T05:22:22;18.50;99.90
41058;DHT22;66768;48.884;2.258;2023-07-30T05:24:50;18.50;99.90
41058;DHT22;66768;48.884;2.258;2023-07-30T05:27:17;18.50;99.90
41058;DHT22;66768;48.884;2.258;2023-07-30T05:29:44;18.60;99.90
41058;DHT22;66768;48.884;2.258;2023-07-30T05:32:11;18.60;99.90
41058;DHT22;66768;48.884;2.258;2023-07-30T05:34:38;18.50;99.90
41058;DHT22;66768;48.884;2.258;2023-07-30T05:37:06;18.60;99.90
41058;DHT22;66768;48.884;2.258;2023-07-30T05:39:33;18.60;99.90
41058;DHT22;66768;48.884;2.258;2023-07-30T05:42:00;18.70;99.90
41058;DHT22;66768;48.884;2.258;2023-07-30T05:44:27;18.60;99.90
41058;DHT22;66768;48.884;2.258;2023-07-30T05:46:54;18.70;99.90
41058;DHT22;66768;48.884;2.258;2023-07-30T05:49:20;18.70;99.90
41058;DHT22;66768;48.884;2.258;2023-07-30T05:51:47;18.80;99.90
41058;DHT22;66768;48.884;2.258;2023-07-30T05:54:16;18.70;99.90
41058;DHT22;66768;48.884;2.258;2023-07-30T05:56:43;18.80;99.90
41058;DHT22;66768;48.884;2.258;2023-07-30T05:59:10;18.80;99.90
41058;DHT22;66768;48.884;2.258;2023-07-30T06:01:37;18.80;99.90
41058;DHT22;66768;48.884;2.258;2023-07-30T06:04:04;18.90;99.90
41058;DHT22;66768;48.884;2.258;2023-07-30T06:06:31;18.90;99.90
41058;DHT22;66768;48.884;2.258;2023-07-30T06:08:57;18.90;99.90
41058;DHT22;66768;48.884;2.258;2023-07-30T06:11:26;18.90;99.90
41058;DHT22;66768;48.884;2.258;2023-07-30T06:13:53;19.00;99.90
41058;DHT22;66768;48.884;2.258;2023-07-30T06:16:20;19.00;99.90
41058;DHT22;66768;48.884;2.258;2023-07-30T06:18:47;19.10;99.90
41058;DHT22;66768;48.884;2.258;2023-07-30T06:21:14;19.10;99.90
41058;DHT22;66768;48.884;2.258;2023-07-30T06:23:41;19.10;99.90
41058;DHT22;66768;48.884;2.258;2023-07-30T06:26:08;19.20;99.90
41058;DHT22;66768;48.884;2.258;2023-07-30T06:28:36;19.10;99.90
41058;DHT22;66768;48.884;2.258;2023-07-30T06:31:03;19.20;99.90
41058;DHT22;66768;48.884;2.258;2023-07-30T06:33:30;19.20;99.90
41058;DHT22;66768;48.884;2.258;2023-07-30T06:35:57;19.20;99.90
41058;DHT22;66768;48.884;2.258;2023-07-30T06:38:24;19.20;99.90
41058;DHT22;66768;48.884;2.258;2023-07-30T06:40:51;19.20;99.90
41058;DHT22;66768;48.884;2.258;2023-07-30T06:43:18;19.30;99.90
41058;DHT22;66768;48.884;2.258;2023-07-30T06:45:46;19.40;99.90
41058;DHT22;66768;48.884;2.258;2023-07-30T06:48:13;19.50;99.90
41058;DHT22;66768;48.884;2.258;2023-07-30T06:50:40;19.50;99.90
41058;DHT22;66768;48.884;2.258;2023-07-30T06:53:07;19.60;99.90
41058;DHT22;66768;48.884;2.258;2023-07-30T06:55:34;19.60;99.90
41058;DHT22;66768;48.884;2.258;2023-07-30T06:58:01;19.50;99.90
41058;DHT22;66768;48.884;2.258;2023-07-30T07:00:28;19.70;99.90
41058;DHT22;66768;48.884;2.258;2023-07-30T07:02:56;19.60;99.90
41058;DHT22;66768;48.884;2.258;2023-07-30T07:05:23;19.60;99.90
41058;DHT22;66768;48.884;2.258;2023-07-30T07:07:50;19.60;99.90
41058;DHT22;66768;48.884;2.258;2023-07-30T07:10:17;19.70;99.90
41058;DHT22;66768;48.884;2.258;2023-07-30T07:12:44;19.80;99.90
41058;DHT22;66768;48.884;2.258;2023-07-30T07:15:11;19.80;99.90
41058;DHT22;66768;48.884;2.258;2023-07-30T07:17:37;19.70;99.90
41058;DHT22;66768;48.884;2.258;2023-07-30T07:20:07;19.90;99.90
41058;DHT22;66768;48.884;2.258;2023-07-30T07:22:36;20.00;99.90
41058;DHT22;66768;48.884;2.258;2023-07-30T07:25:03;20.20;99.90
41058;DHT22;66768;48.884;2.258;2023-07-30T07:27:30;20.10;99.90
41058;DHT22;66768;48.884;2.258;2023-07-30T07:29:57;20.20;99.90
41058;DHT22;66768;48.884;2.258;2023-07-30T07:32:24;20.30;99.90
41058;DHT22;66768;48.884;2.258;2023-07-30T07:34:51;20.50;99.90
41058;DHT22;66768;48.884;2.258;2023-07-30T07:37:20;20.40;99.90
41058;DHT22;66768;48.884;2.258;2023-07-30T07:39:46;20.40;99.90
41058;DHT22;66768;48.884;2.258;2023-07-30T07:42:13;20.50;99.90
41058;DHT22;66768;48.884;2.258;2023-07-30T07:44:40;20.60;99.90
41058;DHT22;66768;48.884;2.258;2023-07-30T07:47:09;20.60;99.90
41058;DHT22;66768;48.884;2.258;2023-07-30T07:49:36;20.70;99.90
41058;DHT22;66768;48.884;2.258;2023-07-30T07:52:03;20.70;99.90
41058;DHT22;66768;48.884;2.258;2023-07-30T07:54:31;20.70;99.90
41058;DHT22;66768;48.884;2.258;2023-07-30T07:56:58;20.70;99.90
41058;DHT22;66768;48.884;2.258;2023-07-30T07:59:25;20.70;99.90
41058;DHT22;66768;48.884;2.258;2023-07-30T08:01:53;20.80;99.90
41058;DHT22;66768;48.884;2.258;2023-07-30T08:04:20;20.70;99.90
41058;DHT22;66768;48.884;2.258;2023-07-30T08:06:47;20.80;99.90
41058;DHT22;66768;48.884;2.258;2023-07-30T08:09:14;20.60;99.90
41058;DHT22;66768;48.884;2.258;2023-07-30T08:11:43;20.50;99.90
41058;DHT22;66768;48.884;2.258;2023-07-30T08:14:10;20.50;99.90
41058;DHT22;66768;48.884;2.258;2023-07-30T08:16:36;20.50;99.90
41058;DHT22;66768;48.884;2.258;2023-07-30T08:19:03;20.40;99.90
41058;DHT22;66768;48.884;2.258;2023-07-30T08:21:30;20.30;99.90
41058;DHT22;66768;48.884;2.258;2023-07-30T08:23:57;20.40;99.90
41058;DHT22;66768;48.884;2.258;2023-07-30T08:26:24;20.50;99.90
41058;DHT22;66768;48.884;2.258;2023-07-30T08:28:52;20.60;99.90
41058;DHT22;66768;48.884;2.258;2023-07-30T08:31:19;20.70;99.90
41058;DHT22;66768;48.884;2.258;2023-07-30T08:33:46;20.80;99.90
41058;DHT22;66768;48.884;2.258;2023-07-30T08:36:13;21.00;99.90
41058;DHT22;66768;48.884;2.258;2023-07-30T08:38:40;21.20;99.90
41058;DHT22;66768;48.884;2.258;2023-07-30T08:41:07;21.20;99.90
41058;DHT22;66768;48.884;2.258;2023-07-30T08:43:34;21.40;99.90
41058;DHT22;66768;48.884;2.258;2023-07-30T08:46:03;21.40;99.90
41058;DHT22;66768;48.884;2.258;2023-07-30T08:48:30;21.50;99.90
41058;DHT22;66768;48.884;2.258;2023-07-30T08:50:57;21.50;99.90
41058;DHT22;66768;48.884;2.258;2023-07-30T08:53:25;21.30;99.90
41058;DHT22;66768;48.884;2.258;2023-07-30T08:55:54;21.30;99.90
41058;DHT22;66768;48.884;2.258;2023-07-30T08:58:23;21.30;99.90
41058;DHT22;66768;48.884;2.258;2023-07-30T09:00:53;21.50;99.90
41058;DHT22;66768;48.884;2.258;2023-07-30T09:03:24;21.50;99.90
41058;DHT22;66768;48.884;2.258;2023-07-30T09:05:53;21.70;99.90
41058;DHT22;66768;48.884;2.258;2023-07-30T09:08:20;21.70;99.90
41058;DHT22;66768;48.884;2.258;2023-07-30T09:10:48;21.70;99.90
41058;DHT22;66768;48.884;2.258;2023-07-30T09:13:21;21.70;99.90
41058;DHT22;66768;48.884;2.258;2023-07-30T09:15:49;21.60;99.90
41058;DHT22;66768;48.884;2.258;2023-07-30T09:18:17;21.50;99.90
41058;DHT22;66768;48.884;2.258;2023-07-30T09:20:45;21.50;99.90
41058;DHT22;66768;48.884;2.258;2023-07-30T09:23:14;21.40;99.90
41058;DHT22;66768;48.884;2.258;2023-07-30T09:25:47;21.50;99.90
41058;DHT22;66768;48.884;2.258;2023-07-30T09:28:18;21.60;99.90
41058;DHT22;66768;48.884;2.258;2023-07-30T09:30:48;21.60;99.90
41058;DHT22;66768;48.884;2.258;2023-07-30T09:33:18;21.60;99.90
41058;DHT22;66768;48.884;2.258;2023-07-30T09:35:49;21.80;99.90
41058;DHT22;66768;48.884;2.258;2023-07-30T09:38:16;21.70;99.90
41058;DHT22;66768;48.884;2.258;2023-07-30T09:40:44;21.80;99.90
41058;DHT22;66768;48.884;2.258;2023-07-30T09:43:14;21.80;99.90
41058;DHT22;66768;48.884;2.258;2023-07-30T09:45:45;21.80;99.90
41058;DHT22;66768;48.884;2.258;2023-07-30T09:48:12;21.90;99.90
41058;DHT22;66768;48.884;2.258;2023-07-30T09:50:40;22.00;99.90
41058;DHT22;66768;48.884;2.258;2023-07-30T09:53:09;22.00;99.90
41058;DHT22;66768;48.884;2.258;2023-07-30T09:55:37;21.90;99.90
41058;DHT22;66768;48.884;2.258;2023-07-30T09:58:03;21.90;99.90
41058;DHT22;66768;48.884;2.258;2023-07-30T10:00:31;21.80;99.90
41058;DHT22;66768;48.884;2.258;2023-07-30T10:02:58;21.80;99.90
41058;DHT22;66768;48.884;2.258;2023-07-30T10:05:32;21.80;99.90
41058;DHT22;66768;48.884;2.258;2023-07-30T10:08:02;21.70;99.90
41058;DHT22;66768;48.884;2.258;2023-07-30T10:10:32;21.70;99.90
41058;DHT22;66768;48.884;2.258;2023-07-30T10:13:01;21.70;99.90
41058;DHT22;66768;48.884;2.258;2023-07-30T10:15:34;21.80;99.90
41058;DHT22;66768;48.884;2.258;2023-07-30T10:18:01;21.90;99.30
41058;DHT22;66768;48.884;2.258;2023-07-30T10:20:28;21.90;99.70
41058;DHT22;66768;48.884;2.258;2023-07-30T10:22:56;21.80;98.60
41058;DHT22;66768;48.884;2.258;2023-07-30T10:25:28;21.70;98.40
41058;DHT22;66768;48.884;2.258;2023-07-30T10:27:58;21.70;98.80
41058;DHT22;66768;48.884;2.258;2023-07-30T10:30:30;21.70;99.10
41058;DHT22;66768;48.884;2.258;2023-07-30T10:33:00;21.80;99.20
41058;DHT22;66768;48.884;2.258;2023-07-30T10:35:41;21.90;99.00
41058;DHT22;66768;48.884;2.258;2023-07-30T10:38:15;22.00;98.80
41058;DHT22;66768;48.884;2.258;2023-07-30T10:40:51;22.00;99.00
41058;DHT22;66768;48.884;2.258;2023-07-30T10:43:29;21.90;98.60
41058;DHT22;66768;48.884;2.258;2023-07-30T10:45:56;22.00;99.20
41058;DHT22;66768;48.884;2.258;2023-07-30T10:48:30;22.00;98.60
41058;DHT22;66768;48.884;2.258;2023-07-30T10:50:57;21.90;97.90
41058;DHT22;66768;48.884;2.258;2023-07-30T10:53:24;22.00;97.80
41058;DHT22;66768;48.884;2.258;2023-07-30T10:55:52;22.00;97.70
41058;DHT22;66768;48.884;2.258;2023-07-30T10:58:20;21.90;97.40
41058;DHT22;66768;48.884;2.258;2023-07-30T11:00:50;21.90;98.10
41058;DHT22;66768;48.884;2.258;2023-07-30T11:03:17;21.90;98.00
41058;DHT22;66768;48.884;2.258;2023-07-30T11:05:46;22.00;98.50
41058;DHT22;66768;48.884;2.258;2023-07-30T11:08:14;22.00;97.10
41058;DHT22;66768;48.884;2.258;2023-07-30T11:10:44;22.00;97.20
41058;DHT22;66768;48.884;2.258;2023-07-30T11:13:13;22.10;96.70
41058;DHT22;66768;48.884;2.258;2023-07-30T11:15:43;22.10;96.40
41058;DHT22;66768;48.884;2.258;2023-07-30T11:18:12;22.20;96.40
41058;DHT22;66768;48.884;2.258;2023-07-30T11:20:39;22.20;96.30
41058;DHT22;66768;48.884;2.258;2023-07-30T11:23:22;22.30;96.80
41058;DHT22;66768;48.884;2.258;2023-07-30T11:25:50;22.40;97.30
41058;DHT22;66768;48.884;2.258;2023-07-30T11:28:32;22.40;96.10
41058;DHT22;66768;48.884;2.258;2023-07-30T11:31:02;22.40;95.10
41058;DHT22;66768;48.884;2.258;2023-07-30T11:33:32;22.50;95.60
41058;DHT22;66768;48.884;2.258;2023-07-30T11:36:01;22.60;95.20
41058;DHT22;66768;48.884;2.258;2023-07-30T11:38:30;22.60;94.40
41058;DHT22;66768;48.884;2.258;2023-07-30T11:40:57;22.60;94.50
41058;DHT22;66768;48.884;2.258;2023-07-30T11:43:24;22.70;94.50
41058;DHT22;66768;48.884;2.258;2023-07-30T11:46:06;22.70;94.40
41058;DHT22;66768;48.884;2.258;2023-07-30T11:48:35;22.70;94.50
41058;DHT22;66768;48.884;2.258;2023-07-30T11:51:03;22.80;94.50
41058;DHT22;66768;48.884;2.258;2023-07-30T11:53:46;22.70;94.30
41058;DHT22;66768;48.884;2.258;2023-07-30T11:56:23;22.80;94.40
41058;DHT22;66768;48.884;2.258;2023-07-30T11:58:55;22.80;94.50
41058;DHT22;66768;48.884;2.258;2023-07-30T12:01:24;22.80;93.90
41058;DHT22;66768;48.884;2.258;2023-07-30T12:03:55;22.80;94.80
41058;DHT22;66768;48.884;2.258;2023-07-30T12:06:22;22.70;95.20
41058;DHT22;66768;48.884;2.258;2023-07-30T12:08:49;22.70;93.90
41058;DHT22;66768;48.884;2.258;2023-07-30T12:11:18;22.70;94.10
41058;DHT22;66768;48.884;2.258;2023-07-30T12:13:46;22.70;94.00
41058;DHT22;66768;48.884;2.258;2023-07-30T12:16:13;22.70;94.10
41058;DHT22;66768;48.884;2.258;2023-07-30T12:18:40;22.70;93.90
41058;DHT22;66768;48.884;2.258;2023-07-30T12:21:09;22.70;94.50
41058;DHT22;66768;48.884;2.258;2023-07-30T12:23:37;22.70;95.40
41058;DHT22;66768;48.884;2.258;2023-07-30T12:26:04;22.70;94.90
41058;DHT22;66768;48.884;2.258;2023-07-30T12:28:32;22.80;94.90
41058;DHT22;66768;48.884;2.258;2023-07-30T12:30:59;22.80;94.80
41058;DHT22;66768;48.884;2.258;2023-07-30T12:33:26;22.80;94.60
41058;DHT22;66768;48.884;2.258;2023-07-30T12:35:53;22.90;94.30
41058;DHT22;66768;48.884;2.258;2023-07-30T12:38:24;22.90;94.40
41058;DHT22;66768;48.884;2.258;2023-07-30T12:40:51;22.80;93.20
41058;DHT22;66768;48.884;2.258;2023-07-30T12:43:18;22.90;93.70
41058;DHT22;66768;48.884;2.258;2023-07-30T12:45:46;22.80;92.80
41058;DHT22;66768;48.884;2.258;2023-07-30T12:48:13;22.80;92.50
41058;DHT22;66768;48.884;2.258;2023-07-30T12:50:40;22.70;93.10
41058;DHT22;66768;48.884;2.258;2023-07-30T12:53:08;22.80;93.50
41058;DHT22;66768;48.884;2.258;2023-07-30T12:55:38;22.80;93.30
41058;DHT22;66768;48.884;2.258;2023-07-30T12:58:06;22.90;93.60
41058;DHT22;66768;48.884;2.258;2023-07-30T13:00:34;23.00;93.90
41058;DHT22;66768;48.884;2.258;2023-07-30T13:03:01;22.90;94.20
41058;DHT22;66768;48.884;2.258;2023-07-30T13:05:28;23.00;94.80
41058;DHT22;66768;48.884;2.258;2023-07-30T13:07:55;22.90;95.50
41058;DHT22;66768;48.884;2.258;2023-07-30T13:10:22;23.00;96.20
41058;DHT22;66768;48.884;2.258;2023-07-30T13:12:51;23.00;95.50
41058;DHT22;66768;48.884;2.258;2023-07-30T13:15:18;23.00;93.70
41058;DHT22;66768;48.884;2.258;2023-07-30T13:17:45;23.10;93.50
41058;DHT22;66768;48.884;2.258;2023-07-30T13:20:12;23.20;92.60
41058;DHT22;66768;48.884;2.258;2023-07-30T13:22:39;23.20;92.50
41058;DHT22;66768;48.884;2.258;2023-07-30T13:25:07;23.20;92.20
41058;DHT22;66768;48.884;2.258;2023-07-30T13:27:33;23.20;91.80
41058;DHT22;66768;48.884;2.258;2023-07-30T13:30:02;23.20;92.10
41058;DHT22;66768;48.884;2.258;2023-07-30T13:32:29;23.20;94.00
41058;DHT22;66768;48.884;2.258;2023-07-30T13:34:56;23.20;94.10
41058;DHT22;66768;48.884;2.258;2023-07-30T13:37:23;23.30;93.20
41058;DHT22;66768;48.884;2.258;2023-07-30T13:39:50;23.30;92.40
41058;DHT22;66768;48.884;2.258;2023-07-30T13:42:16;23.30;92.40
41058;DHT22;66768;48.884;2.258;2023-07-30T13:44:43;23.30;92.10
41058;DHT22;66768;48.884;2.258;2023-07-30T13:47:12;23.30;92.40
41058;DHT22;66768;48.884;2.258;2023-07-30T13:49:38;23.30;92.40
41058;DHT22;66768;48.884;2.258;2023-07-30T13:52:06;23.30;92.10
41058;DHT22;66768;48.884;2.258;2023-07-30T13:54:33;23.30;91.80
41058;DHT22;66768;48.884;2.258;2023-07-30T13:57:02;23.30;92.20
41058;DHT22;66768;48.884;2.258;2023-07-30T13:59:29;23.30;92.30
41058;DHT22;66768;48.884;2.258;2023-07-30T14:01:56;23.30;92.00
41058;DHT22;66768;48.884;2.258;2023-07-30T14:04:25;23.40;92.30
41058;DHT22;66768;48.884;2.258;2023-07-30T14:06:52;23.40;92.80
41058;DHT22;66768;48.884;2.258;2023-07-30T14:09:18;23.30;93.50
41058;DHT22;66768;48.884;2.258;2023-07-30T14:11:45;23.40;93.30
41058;DHT22;66768;48.884;2.258;2023-07-30T14:14:12;23.40;93.40
41058;DHT22;66768;48.884;2.258;2023-07-30T14:16:39;23.40;93.40
41058;DHT22;66768;48.884;2.258;2023-07-30T14:19:06;23.50;92.30
41058;DHT22;66768;48.884;2.258;2023-07-30T14:21:34;23.50;92.40
41058;DHT22;66768;48.884;2.258;2023-07-30T14:24:01;23.60;91.30
41058;DHT22;66768;48.884;2.258;2023-07-30T14:26:28;23.60;91.70
41058;DHT22;66768;48.884;2.258;2023-07-30T14:28:55;23.60;91.90
41058;DHT22;66768;48.884;2.258;2023-07-30T14:31:22;23.60;92.10
41058;DHT22;66768;48.884;2.258;2023-07-30T14:33:49;23.60;92.80
41058;DHT22;66768;48.884;2.258;2023-07-30T14:36:16;23.60;93.00
41058;DHT22;66768;48.884;2.258;2023-07-30T14:38:44;23.60;92.20
41058;DHT22;66768;48.884;2.258;2023-07-30T14:41:11;23.60;93.00
41058;DHT22;66768;48.884;2.258;2023-07-30T14:43:38;23.60;92.00
41058;DHT22;66768;48.884;2.258;2023-07-30T14:46:05;23.60;92.10
41058;DHT22;66768;48.884;2.258;2023-07-30T14:48:32;23.70;92.30
41058;DHT22;66768;48.884;2.258;2023-07-30T14:50:59;23.70;92.30
41058;DHT22;66768;48.884;2.258;2023-07-30T14:53:26;23.70;92.20
41058;DHT22;66768;48.884;2.258;2023-07-30T14:55:54;23.70;91.40
41058;DHT22;66768;48.884;2.258;2023-07-30T14:58:21;23.70;91.50
41058;DHT22;66768;48.884;2.258;2023-07-30T15:00:48;23.70;91.20
41058;DHT22;66768;48.884;2.258;2023-07-30T15:03:15;23.70;92.20
41058;DHT22;66768;48.884;2.258;2023-07-30T15:05:42;23.70;92.00
41058;DHT22;66768;48.884;2.258;2023-07-30T15:08:08;23.70;91.70
41058;DHT22;66768;48.884;2.258;2023-07-30T15:10:35;23.70;91.70
41058;DHT22;66768;48.884;2.258;2023-07-30T15:13:04;23.70;91.70
41058;DHT22;66768;48.884;2.258;2023-07-30T15:15:31;23.70;91.60
41058;DHT22;66768;48.884;2.258;2023-07-30T15:17:57;23.60;91.90
41058;DHT22;66768;48.884;2.258;2023-07-30T15:20:24;23.60;91.90
41058;DHT22;66768;48.884;2.258;2023-07-30T15:22:52;23.60;92.10
41058;DHT22;66768;48.884;2.258;2023-07-30T15:25:19;23.50;92.50
41058;DHT22;66768;48.884;2.258;2023-07-30T15:27:46;23.40;92.10
41058;DHT22;66768;48.884;2.258;2023-07-30T15:30:14;23.40;92.30
41058;DHT22;66768;48.884;2.258;2023-07-30T15:32:43;23.40;93.10